Time;durP1;ratioP1;P1;durP2;ratioP2;P2;SDS_P1;SDS_P2;PMS_P1;PMS_P2;Temp;Humidity;BMP_temperature;BMP_pressure;BME280_temperature;BME280_humidity;BME280_pressure;Samples;Min_cycle;Max_cycle;Signal;HPM_P1;HPM_P2
2022/12/30 00:00:48;;;;;;;8.97;2.57;;;;;;;7.89;76.33;100132.78;5028588;28;20220;-71
2022/12/30 00:03:15;;;;;;;8.03;2.10;;;;;;;7.88;76.14;100131.09;5028493;28;20210;-72
2022/12/30 00:05:42;;;;;;;11.10;2.17;;;;;;;7.88;75.92;100145.19;5026030;28;20265;-73
2022/12/30 00:08:45;;;;;;;9.47;2.07;;;;;;;7.87;76.35;100147.94;5027180;28;20213;-71
2022/12/30 00:10:55;;;;;;;8.37;1.90;;;;;;;7.88;76.21;100152.31;5032777;28;20226;-69
2022/12/30 00:33:09;;;;;;;7.07;2.00;;;;;;;7.79;76.03;100172.25;5014533;28;20376;-70
2022/12/30 00:35:38;;;;;;;6.53;2.37;;;;;;;7.77;75.74;100175.94;5025573;28;20236;-71
2022/12/30 00:38:05;;;;;;;8.17;2.40;;;;;;;7.77;75.96;100179.44;5025774;28;20229;-72
2022/12/30 00:40:31;;;;;;;7.50;1.83;;;;;;;7.77;76.06;100187.41;5022337;28;20225;-71
2022/12/30 00:43:09;;;;;;;4.53;2.83;;;;;;;7.78;75.32;100178.50;5024772;28;20210;-71
2022/12/30 00:45:39;;;;;;;9.57;2.97;;;;;;;7.75;75.30;100168.06;5029830;28;20229;-71
2022/12/30 00:56:19;;;;;;;6.13;2.10;;;;;;;7.68;74.05;100195.06;5020167;28;20290;-72
2022/12/30 00:58:45;;;;;;;10.47;2.37;;;;;;;7.70;74.45;100195.81;5028498;28;20561;-71
2022/12/30 01:01:13;;;;;;;7.83;2.70;;;;;;;7.71;74.43;100202.78;5029082;28;20222;-72
2022/12/30 01:03:40;;;;;;;8.87;2.83;;;;;;;7.74;74.30;100207.91;5024191;28;20210;-72
2022/12/30 01:06:08;;;;;;;5.80;2.30;;;;;;;7.72;74.41;100201.84;5029038;28;20226;-71
2022/12/30 01:08:34;;;;;;;7.77;2.33;;;;;;;7.72;74.08;100215.97;5023991;28;20303;-71
2022/12/30 01:11:05;;;;;;;8.17;2.10;;;;;;;7.72;74.51;100218.59;5024000;28;20596;-71
2022/12/30 01:13:32;;;;;;;6.07;2.00;;;;;;;7.71;74.57;100222.19;5029542;28;20193;-71
2022/12/30 01:16:05;;;;;;;7.60;2.17;;;;;;;7.72;74.23;100231.00;5025274;28;20222;-72
2022/12/30 01:18:33;;;;;;;8.13;2.20;;;;;;;7.70;74.29;100239.09;5042600;28;20198;-71
2022/12/30 01:21:00;;;;;;;6.13;2.13;;;;;;;7.71;74.49;100230.16;5019056;28;20209;-70
2022/12/30 01:23:26;;;;;;;6.87;2.30;;;;;;;7.70;74.63;100248.81;5040031;28;20217;-71
2022/12/30 01:25:53;;;;;;;9.63;2.10;;;;;;;7.70;74.33;100243.53;5030952;28;20235;-70
2022/12/30 01:28:19;;;;;;;6.87;2.00;;;;;;;7.71;74.62;100255.81;5039315;28;20209;-71
2022/12/30 01:30:46;;;;;;;6.00;1.80;;;;;;;7.73;73.59;100248.63;5037031;28;20229;-72
2022/12/30 01:33:12;;;;;;;9.03;2.33;;;;;;;7.70;74.20;100262.09;5029525;28;20210;-71
2022/12/30 01:35:40;;;;;;;4.33;1.93;;;;;;;7.67;73.89;100268.41;5034238;28;20753;-71
2022/12/30 01:38:06;;;;;;;5.70;2.50;;;;;;;7.65;73.45;100270.28;5035876;28;20221;-72
2022/12/30 01:40:39;;;;;;;5.33;1.90;;;;;;;7.65;73.21;100270.28;5037814;28;20659;-71
2022/12/30 01:43:05;;;;;;;8.20;2.20;;;;;;;7.65;73.96;100268.50;5034650;28;20205;-71
2022/12/30 01:45:32;;;;;;;5.50;1.60;;;;;;;7.68;73.47;100264.81;5027563;28;20214;-72
2022/12/30 01:48:03;;;;;;;6.83;2.67;;;;;;;7.68;72.82;100282.50;5040270;28;20217;-71
2022/12/30 01:50:34;;;;;;;8.10;2.20;;;;;;;7.70;72.91;100291.25;5036056;28;20734;-72
2022/12/30 01:53:08;;;;;;;8.60;2.37;;;;;;;7.68;73.28;100287.81;5034129;28;20229;-71
2022/12/30 01:55:40;;;;;;;10.13;2.40;;;;;;;7.68;73.28;100285.16;5028962;28;20596;-71
2022/12/30 01:58:12;;;;;;;11.40;3.00;;;;;;;7.70;72.80;100292.09;5031598;28;20229;-71
2022/12/30 02:00:41;;;;;;;6.13;2.30;;;;;;;7.68;74.18;100287.81;5032457;28;20195;-73
2022/12/30 02:03:08;;;;;;;7.13;1.97;;;;;;;7.70;73.88;100285.94;5037351;28;20428;-71
2022/12/30 02:05:38;;;;;;;8.37;2.70;;;;;;;7.73;73.25;100288.38;5033925;28;20738;-71
2022/12/30 02:08:10;;;;;;;6.73;2.50;;;;;;;7.69;73.17;100294.81;5035172;28;20676;-70
2022/12/30 02:10:39;;;;;;;10.20;2.83;;;;;;;7.68;73.55;100293.13;5019958;28;20229;-71
2022/12/30 02:13:06;;;;;;;8.23;2.63;;;;;;;7.66;72.95;100285.25;5028918;28;20230;-70
2022/12/30 02:15:43;;;;;;;7.00;2.20;;;;;;;7.66;73.90;100291.41;5022406;28;20802;-71
2022/12/30 02:18:19;;;;;;;4.57;1.70;;;;;;;7.66;73.43;100295.84;5029496;28;20198;-71
2022/12/30 02:21:04;;;;;;;7.93;3.17;;;;;;;7.65;73.33;100291.50;5038427;28;20206;-72
2022/12/30 02:23:49;;;;;;;7.40;2.60;;;;;;;7.62;73.70;100291.66;5020514;28;20703;-71
2022/12/30 02:26:48;;;;;;;5.27;2.00;;;;;;;7.64;73.59;100292.44;5026358;28;20746;-72
2022/12/30 02:29:57;;;;;;;7.70;2.33;;;;;;;7.60;73.91;100291.75;5029387;28;20668;-70
2022/12/30 02:32:31;;;;;;;11.30;3.07;;;;;;;7.59;73.46;100295.34;5032149;28;20230;-70
2022/12/30 02:35:07;;;;;;;6.07;2.53;;;;;;;7.60;73.46;100290.88;5039024;28;20202;-71
2022/12/30 02:37:40;;;;;;;8.63;2.77;;;;;;;7.57;73.40;100286.63;5025161;28;20253;-72
2022/12/30 02:40:14;;;;;;;5.07;2.33;;;;;;;7.58;73.41;100284.81;5028880;28;20198;-71
2022/12/30 02:45:35;;;;;;;5.93;2.03;;;;;;;7.56;73.81;100294.66;5033912;28;22750;-71
2022/12/30 02:48:09;;;;;;;7.83;2.30;;;;;;;7.55;73.82;100277.88;5030557;28;20197;-70
2022/12/30 02:53:29;;;;;;;9.37;3.03;;;;;;;7.55;73.28;100283.19;5026776;28;20687;-71
2022/12/30 02:55:56;;;;;;;7.17;2.20;;;;;;;7.53;74.21;100282.41;5029200;28;20228;-72
2022/12/30 02:58:26;;;;;;;8.40;2.90;;;;;;;7.51;73.63;100291.44;5041417;28;20233;-70
2022/12/30 03:04:15;;;;;;;8.37;2.10;;;;;;;7.47;73.93;100290.75;5004572;28;20213;-71
2022/12/30 03:07:01;;;;;;;7.03;2.20;;;;;;;7.42;74.59;100298.06;5024748;28;20221;-72
2022/12/30 03:11:12;;;;;;;8.77;2.67;;;;;;;7.41;74.40;100298.16;5032969;28;20209;-70
2022/12/30 03:12:33;;;;;;;9.57;2.47;;;;;;;7.39;74.80;100300.03;5032991;28;20279;-71
2022/12/30 03:15:05;;;;;;;11.50;2.37;;;;;;;7.39;74.69;100300.03;5039467;28;20690;-70
2022/12/30 03:17:34;;;;;;;6.33;3.10;;;;;;;7.38;74.92;100309.78;5021149;28;20224;-69
2022/12/30 03:20:07;;;;;;;7.87;2.30;;;;;;;7.39;74.44;100311.50;5023656;28;20207;-69
2022/12/30 03:28:07;;;;;;;6.77;2.50;;;;;;;7.31;74.35;100309.28;5030014;28;20205;-69
2022/12/30 03:30:40;;;;;;;5.70;2.50;;;;;;;7.30;74.53;100309.38;5031609;28;20686;-71
2022/12/30 03:33:06;;;;;;;6.47;2.20;;;;;;;7.31;74.50;100321.69;5031868;28;20684;-70
2022/12/30 03:35:39;;;;;;;8.73;2.63;;;;;;;7.34;75.02;100324.16;5034111;28;20205;-70
2022/12/30 03:38:07;;;;;;;7.27;2.83;;;;;;;7.32;74.50;100323.38;5038268;28;20198;-70
2022/12/30 03:40:37;;;;;;;7.47;3.27;;;;;;;7.28;74.43;100325.34;5031429;28;20210;-70
2022/12/30 03:43:07;;;;;;;11.73;2.73;;;;;;;7.28;74.93;100332.44;5032470;28;20218;-70
2022/12/30 03:45:34;;;;;;;8.50;2.67;;;;;;;7.23;74.92;100337.13;5038031;28;20705;-70
2022/12/30 03:48:00;;;;;;;6.90;2.20;;;;;;;7.23;74.86;100342.41;5029761;28;20217;-70
2022/12/30 03:50:26;;;;;;;6.37;2.23;;;;;;;7.22;75.08;100336.25;5037181;28;20202;-70
2022/12/30 03:52:54;;;;;;;8.80;2.50;;;;;;;7.23;74.82;100343.28;5032994;28;20225;-71
2022/12/30 03:55:21;;;;;;;7.57;2.40;;;;;;;7.25;74.50;100337.88;5031761;28;20213;-69
2022/12/30 03:57:47;;;;;;;7.00;2.80;;;;;;;7.24;74.89;100339.69;5036394;28;20217;-71
2022/12/30 04:00:14;;;;;;;7.00;2.27;;;;;;;7.24;75.24;100344.13;5029261;28;20214;-70
2022/12/30 04:02:41;;;;;;;5.60;2.40;;;;;;;7.26;74.51;100347.56;5024913;28;20201;-70
2022/12/30 04:05:08;;;;;;;6.47;2.00;;;;;;;7.24;74.86;100341.47;5033381;28;20209;-71
2022/12/30 04:07:35;;;;;;;8.97;2.53;;;;;;;7.26;75.00;100340.47;5035447;28;20722;-70
2022/12/30 04:10:04;;;;;;;5.77;1.70;;;;;;;7.25;74.65;100333.44;5030220;28;20205;-71
2022/12/30 04:12:31;;;;;;;5.40;2.10;;;;;;;7.24;74.66;100338.84;5030758;28;20381;-70
2022/12/30 04:14:57;;;;;;;8.70;2.90;;;;;;;7.22;74.64;100338.06;5026638;28;20209;-69
2022/12/30 04:17:24;;;;;;;10.33;2.57;;;;;;;7.23;74.70;100342.41;5031451;28;20229;-70
2022/12/30 04:19:51;;;;;;;8.47;2.70;;;;;;;7.20;75.08;100342.56;5025557;28;20679;-71
2022/12/30 04:22:17;;;;;;;8.47;2.27;;;;;;;7.21;75.14;100349.59;5034406;28;20203;-70
2022/12/30 04:24:44;;;;;;;9.57;2.40;;;;;;;7.21;75.61;100357.53;5025690;28;20207;-70
2022/12/30 04:27:11;;;;;;;6.40;2.30;;;;;;;7.19;75.23;100356.75;5034286;28;20611;-70
2022/12/30 04:29:38;;;;;;;7.43;2.87;;;;;;;7.20;75.48;100346.06;5023397;28;20619;-70
2022/12/30 04:32:04;;;;;;;6.63;2.03;;;;;;;7.22;75.16;100359.25;5028940;28;20699;-69
2022/12/30 04:34:31;;;;;;;11.50;3.37;;;;;;;7.22;75.47;100365.41;5032091;28;20207;-69
2022/12/30 04:36:57;;;;;;;9.13;2.70;;;;;;;7.21;75.66;100363.69;5035472;22;20230;-84
2022/12/30 04:39:24;;;;;;;9.70;3.03;;;;;;;7.20;75.71;100364.63;5015794;28;20670;-83
2022/12/30 04:41:50;;;;;;;9.60;2.40;;;;;;;7.16;76.77;100370.19;5014664;28;20214;-83
2022/12/30 04:44:18;;;;;;;9.30;2.37;;;;;;;7.18;76.01;100381.53;5014392;28;20202;-83
2022/12/30 04:46:45;;;;;;;9.50;3.00;;;;;;;7.16;76.74;100383.44;5005455;28;20269;-84
2022/12/30 04:49:11;;;;;;;9.60;2.27;;;;;;;7.12;76.80;100373.94;5001404;28;20226;-82
2022/12/30 04:51:38;;;;;;;6.87;2.13;;;;;;;7.11;76.50;100377.50;5002015;28;20234;-82
2022/12/30 04:54:04;;;;;;;10.10;2.70;;;;;;;7.07;76.84;100386.56;5005876;28;20214;-82
2022/12/30 04:56:31;;;;;;;11.13;2.37;;;;;;;7.05;77.26;100388.41;4999290;28;20772;-82
2022/12/30 04:58:57;;;;;;;9.60;2.27;;;;;;;7.04;76.56;100387.56;5002752;28;20208;-81
2022/12/30 05:01:26;;;;;;;8.83;2.50;;;;;;;7.02;77.29;100393.88;5003733;28;20215;-82
2022/12/30 05:03:52;;;;;;;7.07;2.07;;;;;;;7.00;77.53;100403.69;4999648;28;20242;-81
2022/12/30 05:06:19;;;;;;;4.80;1.93;;;;;;;7.01;77.22;100394.81;5001712;28;20239;-82
2022/12/30 05:08:45;;;;;;;14.03;2.70;;;;;;;7.00;77.38;100390.44;5002646;28;20200;-83
2022/12/30 05:11:12;;;;;;;10.67;2.53;;;;;;;6.97;77.63;100402.94;5006278;28;20218;-83
2022/12/30 05:13:38;;;;;;;8.60;1.93;;;;;;;6.95;77.80;100406.59;4995274;28;20223;-81
2022/12/30 05:16:05;;;;;;;7.57;2.13;;;;;;;6.92;78.71;100409.41;4998409;28;20232;-81
2022/12/30 05:18:33;;;;;;;9.00;2.20;;;;;;;6.91;78.70;100413.84;4998704;28;20215;-81
2022/12/30 05:20:59;;;;;;;7.90;2.50;;;;;;;6.90;78.38;100422.72;4996965;28;20681;-84
2022/12/30 05:26:16;;;;;;;5.87;1.80;;;;;;;6.92;78.45;100422.63;5000479;28;20245;-82
2022/12/30 05:28:43;;;;;;;8.97;2.70;;;;;;;6.93;78.10;100424.34;4997585;28;20282;-84
2022/12/30 05:31:10;;;;;;;8.27;2.47;;;;;;;6.91;78.97;100416.50;4989507;28;20215;-82
2022/12/30 05:33:38;;;;;;;9.93;2.70;;;;;;;6.91;78.59;100418.28;5005150;28;20203;-82
2022/12/30 05:36:05;;;;;;;9.70;2.57;;;;;;;6.88;78.95;100414.00;4999259;28;20627;-82
2022/12/30 05:38:31;;;;;;;12.40;2.80;;;;;;;6.88;79.71;100416.63;5003087;28;20196;-83
2022/12/30 05:40:58;;;;;;;12.10;2.60;;;;;;;6.86;79.39;100418.50;4997171;28;20210;-81
2022/12/30 05:43:25;;;;;;;11.30;2.60;;;;;;;6.85;79.62;100411.50;4995310;28;20211;-82
2022/12/30 05:45:51;;;;;;;9.80;2.83;;;;;;;6.85;79.80;100427.38;5007497;28;20230;-82
2022/12/30 05:48:18;;;;;;;7.30;1.97;;;;;;;6.86;80.09;100433.53;4997035;28;20211;-81
2022/12/30 05:50:48;;;;;;;9.87;1.93;;;;;;;6.84;79.62;100433.59;5004928;28;20224;-83
2022/12/30 05:53:15;;;;;;;6.27;2.00;;;;;;;6.86;79.62;100428.25;4994838;28;20721;-82
2022/12/30 05:55:42;;;;;;;8.07;1.67;;;;;;;6.84;79.67;100424.81;4993337;28;20230;-83
2022/12/30 05:58:09;;;;;;;12.77;2.23;;;;;;;6.84;79.95;100427.47;4990931;28;20516;-83
2022/12/30 06:00:35;;;;;;;8.60;1.90;;;;;;;6.86;79.55;100423.81;4991188;28;20207;-83
2022/12/30 06:03:02;;;;;;;5.97;2.00;;;;;;;6.86;79.85;100423.81;4990990;28;20203;-84
2022/12/30 06:05:28;;;;;;;8.47;2.17;;;;;;;6.88;79.93;100429.88;4988927;28;20231;-84
2022/12/30 06:07:56;;;;;;;6.87;2.57;;;;;;;6.87;80.33;100440.53;4985705;28;20222;-84
2022/12/30 06:10:23;;;;;;;7.23;2.07;;;;;;;6.87;79.50;100437.91;4992169;28;20208;-83
2022/12/30 06:12:49;;;;;;;11.23;2.77;;;;;;;6.86;79.93;100441.47;4992045;28;20243;-83
2022/12/30 06:15:16;;;;;;;8.63;2.77;;;;;;;6.84;80.02;100440.69;4990354;28;20231;-85
2022/12/30 06:17:42;;;;;;;9.07;2.30;;;;;;;6.82;79.77;100440.78;4993183;28;20203;-83
2022/12/30 06:20:10;;;;;;;9.67;2.23;;;;;;;6.82;79.57;100439.91;5000909;28;20239;-84
2022/12/30 06:22:36;;;;;;;10.47;2.40;;;;;;;6.84;79.60;100435.41;4990064;28;20605;-83
2022/12/30 06:25:05;;;;;;;8.87;2.03;;;;;;;6.82;79.79;100446.06;4989952;28;20218;-83
2022/12/30 06:27:31;;;;;;;7.13;2.00;;;;;;;6.82;79.88;100454.00;4987438;28;20576;-82
2022/12/30 06:29:58;;;;;;;7.97;1.77;;;;;;;6.81;79.65;100456.72;4990812;28;20211;-83
2022/12/30 06:32:24;;;;;;;6.67;2.40;;;;;;;6.79;80.14;100459.47;4999213;28;20231;-84
2022/12/30 06:34:51;;;;;;;7.50;2.30;;;;;;;6.79;80.17;100461.28;4997408;28;20200;-83
2022/12/30 06:37:17;;;;;;;8.20;2.07;;;;;;;6.81;80.03;100451.44;4993463;28;20227;-83
2022/12/30 06:39:44;;;;;;;8.03;1.97;;;;;;;6.80;80.16;100447.09;4990855;28;20238;-84
2022/12/30 06:42:12;;;;;;;10.17;1.93;;;;;;;6.79;80.35;100456.84;4987739;28;20219;-85
2022/12/30 06:44:38;;;;;;;6.87;1.50;;;;;;;6.76;80.44;100450.84;4993347;28;20200;-84
2022/12/30 06:47:05;;;;;;;7.17;2.33;;;;;;;6.77;79.92;100449.91;4990284;28;20239;-83
2022/12/30 06:49:31;;;;;;;10.87;1.90;;;;;;;6.77;80.43;100452.53;4996448;28;20212;-84
2022/12/30 06:51:58;;;;;;;6.27;1.70;;;;;;;6.74;80.12;100445.63;4999517;28;20238;-83
2022/12/30 06:54:24;;;;;;;6.33;1.70;;;;;;;6.73;80.36;100446.53;4999802;28;20215;-82
2022/12/30 06:56:50;;;;;;;9.03;1.57;;;;;;;6.71;79.94;100443.13;4992072;28;20227;-83
2022/12/30 06:59:18;;;;;;;7.67;1.60;;;;;;;6.76;79.61;100443.75;4992987;28;20286;-83
2022/12/30 07:01:45;;;;;;;9.17;1.97;;;;;;;6.73;79.42;100446.53;4992874;28;20227;-84
2022/12/30 07:04:11;;;;;;;6.20;2.03;;;;;;;6.74;79.64;100447.41;4991220;28;20215;-82
2022/12/30 07:06:38;;;;;;;8.73;2.20;;;;;;;6.70;79.16;100453.78;4986961;28;20235;-84
2022/12/30 07:09:04;;;;;;;9.80;2.23;;;;;;;6.66;80.25;100455.72;4995792;28;20647;-83
2022/12/30 07:11:31;;;;;;;5.37;1.73;;;;;;;6.64;80.02;100452.28;4987697;28;20294;-84
2022/12/30 07:13:57;;;;;;;9.23;2.23;;;;;;;6.63;79.80;100457.69;4992504;28;20254;-84
2022/12/30 07:16:25;;;;;;;12.47;1.70;;;;;;;6.62;79.33;100456.81;4994894;28;20228;-84
2022/12/30 07:18:52;;;;;;;7.90;2.00;;;;;;;6.60;79.17;100456.91;4999072;28;20231;-83
2022/12/30 07:21:19;;;;;;;4.97;1.40;;;;;;;6.60;79.97;100451.59;4988561;28;20219;-82
2022/12/30 07:23:45;;;;;;;6.40;1.70;;;;;;;6.61;79.33;100452.47;4993077;28;20203;-82
2022/12/30 07:26:12;;;;;;;9.67;2.77;;;;;;;6.60;79.36;100454.25;4993376;28;20234;-82
2022/12/30 07:28:38;;;;;;;5.37;2.33;;;;;;;6.58;79.20;100463.19;4995922;28;20210;-85
2022/12/30 07:31:05;;;;;;;5.77;1.83;;;;;;;6.56;79.12;100463.28;4996000;28;20208;-83
2022/12/30 07:33:33;;;;;;;7.07;2.07;;;;;;;6.56;79.01;100465.06;4998524;28;20220;-83
2022/12/30 07:35:59;;;;;;;8.10;2.70;;;;;;;6.54;79.58;100457.19;4991236;28;20228;-84
2022/12/30 07:38:26;;;;;;;9.00;3.90;;;;;;;6.53;79.58;100459.91;5004164;28;20211;-83
2022/12/30 07:40:52;;;;;;;8.80;2.97;;;;;;;6.49;79.06;100467.16;4995998;28;20203;-83
2022/12/30 07:43:19;;;;;;;9.83;5.33;;;;;;;6.48;78.94;100472.50;4997281;28;20203;-83
2022/12/30 07:45:45;;;;;;;12.60;6.47;;;;;;;6.46;79.27;100469.94;4992719;28;20230;-83
2022/12/30 07:48:11;;;;;;;13.17;5.07;;;;;;;6.46;78.88;100474.38;4994054;28;20207;-84
2022/12/30 07:50:40;;;;;;;7.47;3.47;;;;;;;6.43;78.89;100475.41;4992038;28;20249;-84
2022/12/30 07:53:06;;;;;;;12.43;2.70;;;;;;;6.41;79.34;100482.56;4989733;28;20231;-83
2022/12/30 07:55:34;;;;;;;7.57;2.10;;;;;;;6.41;79.06;100469.31;4990380;28;20707;-82
2022/12/30 07:58:00;;;;;;;7.13;1.47;;;;;;;6.40;78.94;100470.25;4987995;28;20585;-84
2022/12/30 08:00:26;;;;;;;7.10;1.50;;;;;;;6.37;79.17;100475.69;4994093;28;20215;-84
2022/12/30 08:02:53;;;;;;;6.77;1.40;;;;;;;6.36;79.07;100473.97;4988960;28;20465;-84
2022/12/30 08:05:22;;;;;;;5.03;1.60;;;;;;;6.36;79.28;100470.47;4985875;28;20255;-81
2022/12/30 08:07:53;;;;;;;5.47;1.33;;;;;;;6.34;78.67;100464.41;4992243;28;20211;-83
2022/12/30 08:10:20;;;;;;;7.10;1.87;;;;;;;6.34;78.37;100461.75;4992481;28;20575;-82
2022/12/30 08:12:46;;;;;;;5.13;1.60;;;;;;;6.30;78.95;100465.47;4988261;28;20224;-83
2022/12/30 08:15:13;;;;;;;9.70;1.93;;;;;;;6.31;78.70;100467.19;4988199;28;20882;-84
2022/12/30 08:17:40;;;;;;;6.80;1.63;;;;;;;6.28;78.34;100470.84;4994944;28;20212;-84
2022/12/30 08:20:09;;;;;;;6.57;1.20;;;;;;;6.28;78.56;100462.91;4991191;28;20207;-83
2022/12/30 08:22:35;;;;;;;8.17;2.90;;;;;;;6.27;78.71;100463.81;5001994;28;20294;-82
2022/12/30 08:25:03;;;;;;;7.63;1.30;;;;;;;6.27;78.62;100464.69;4996204;28;20215;-83
2022/12/30 08:27:32;;;;;;;6.00;1.10;;;;;;;6.27;78.65;100462.03;4996749;28;20659;-83
2022/12/30 08:29:59;;;;;;;4.90;1.30;;;;;;;6.27;78.42;100463.81;4989421;28;20716;-83
2022/12/30 08:32:25;;;;;;;4.60;1.07;;;;;;;6.28;78.71;100450.53;4996223;28;20235;-82
2022/12/30 08:34:52;;;;;;;5.53;1.40;;;;;;;6.31;78.44;100454.81;4996003;28;20222;-83
2022/12/30 08:37:18;;;;;;;6.27;1.33;;;;;;;6.31;78.69;100448.66;5001201;28;20210;-83
2022/12/30 08:39:45;;;;;;;5.47;1.70;;;;;;;6.33;78.77;100454.75;4991802;28;20211;-85
2022/12/30 08:42:12;;;;;;;6.67;1.50;;;;;;;6.32;78.90;100453.03;4997218;28;20215;-84
2022/12/30 08:44:39;;;;;;;5.83;1.50;;;;;;;6.33;78.82;100462.69;4993449;28;20207;-85
2022/12/30 08:47:05;;;;;;;5.93;1.60;;;;;;;6.33;78.85;100457.38;4999943;28;20230;-83
2022/12/30 08:49:32;;;;;;;6.23;1.50;;;;;;;6.35;78.20;100463.47;4997572;28;20203;-83
2022/12/30 08:51:58;;;;;;;6.67;2.23;;;;;;;6.34;78.98;100469.69;4998844;28;20573;-83
2022/12/30 08:54:25;;;;;;;4.13;1.60;;;;;;;6.35;78.72;100464.31;4994119;28;20607;-83
2022/12/30 08:56:51;;;;;;;9.33;2.20;;;;;;;6.36;78.92;100460.75;4993412;28;20694;-83
2022/12/30 08:59:19;;;;;;;8.13;1.60;;;;;;;6.38;79.00;100455.38;4992257;28;20691;-82
2022/12/30 09:01:46;;;;;;;8.43;1.57;;;;;;;6.37;78.81;100473.03;4995931;28;20211;-82
2022/12/30 09:04:13;;;;;;;5.63;1.20;;;;;;;6.37;79.29;100464.25;4996000;28;20604;-82
2022/12/30 09:06:42;;;;;;;7.70;1.60;;;;;;;6.40;79.60;100458.81;4998801;28;20227;-85
2022/12/30 09:09:11;;;;;;;5.37;1.80;;;;;;;6.45;79.34;100457.63;4993264;28;20207;-84
2022/12/30 09:11:39;;;;;;;8.17;1.20;;;;;;;6.46;79.44;100466.44;4992969;28;20203;-83
2022/12/30 09:14:09;;;;;;;6.70;1.40;;;;;;;6.47;79.23;100465.50;4991745;28;20224;-82
2022/12/30 09:16:36;;;;;;;7.13;1.50;;;;;;;6.51;79.58;100472.34;4993997;28;20235;-82
2022/12/30 09:19:03;;;;;;;4.27;1.17;;;;;;;6.54;79.52;100478.38;4996281;28;20218;-84
2022/12/30 09:21:30;;;;;;;7.03;2.60;;;;;;;6.58;78.74;100472.00;4997758;28;20207;-84
2022/12/30 09:23:56;;;;;;;4.20;2.40;;;;;;;6.58;79.27;100464.06;4994654;28;20207;-84
2022/12/30 09:26:25;;;;;;;14.13;2.93;;;;;;;6.60;79.23;100462.19;4994761;28;20227;-83
2022/12/30 09:28:52;;;;;;;4.57;2.00;;;;;;;6.62;79.16;100459.47;4994648;28;20230;-83
2022/12/30 09:31:18;;;;;;;7.07;1.70;;;;;;;6.64;79.42;100460.22;5001798;28;20222;-85
2022/12/30 09:33:46;;;;;;;4.87;1.33;;;;;;;6.65;79.68;100463.72;4995006;28;20725;-83
2022/12/30 09:36:13;;;;;;;7.57;1.63;;;;;;;6.68;79.08;100453.84;4989068;28;20235;-84
2022/12/30 09:38:40;;;;;;;5.37;1.53;;;;;;;6.71;79.02;100459.00;4985580;28;20213;-84
2022/12/30 09:41:09;;;;;;;7.77;1.80;;;;;;;6.68;78.34;100451.22;4993125;28;20207;-84
2022/12/30 09:43:40;;;;;;;6.20;1.87;;;;;;;6.74;78.73;100458.00;4997945;28;20214;-83
2022/12/30 09:46:21;;;;;;;9.03;1.80;;;;;;;6.76;78.51;100451.69;4992911;28;20235;-82
2022/12/30 09:48:53;;;;;;;9.33;2.17;;;;;;;6.83;78.26;100454.88;4991683;28;20207;-82
2022/12/30 09:51:26;;;;;;;4.83;1.33;;;;;;;6.85;77.58;100447.69;4990466;28;20207;-82
2022/12/30 09:53:56;;;;;;;7.30;1.67;;;;;;;6.87;78.28;100445.84;4993539;28;20211;-82
2022/12/30 09:56:29;;;;;;;7.07;1.63;;;;;;;6.90;77.96;100440.38;4992507;28;20223;-82
2022/12/30 09:58:59;;;;;;;7.60;2.50;;;;;;;6.94;78.33;100440.16;4987260;28;20246;-83
2022/12/30 10:01:30;;;;;;;6.40;1.57;;;;;;;7.01;78.27;100434.53;4989754;28;20223;-82
2022/12/30 10:04:00;;;;;;;6.50;1.90;;;;;;;7.03;78.34;100424.72;4990680;28;20199;-82
2022/12/30 10:06:32;;;;;;;7.00;1.57;;;;;;;7.05;77.91;100425.50;4984546;28;20234;-83
2022/12/30 10:09:41;;;;;;;8.17;1.53;;;;;;;7.08;77.85;100420.91;4987755;28;20204;-81
2022/12/30 10:12:24;;;;;;;6.43;1.97;;;;;;;7.13;77.16;100413.56;4916030;29;20214;-81
2022/12/30 10:15:00;;;;;;;4.53;1.10;;;;;;;7.18;76.74;100415.97;4911393;29;20238;-80
2022/12/30 10:17:45;;;;;;;6.60;1.20;;;;;;;7.21;76.97;100413.16;4957175;28;20211;-83
2022/12/30 10:20:22;;;;;;;7.60;1.73;;;;;;;7.25;76.46;100422.66;4990927;28;20211;-82
2022/12/30 10:23:00;;;;;;;7.67;2.77;;;;;;;7.25;76.62;100412.91;4987163;28;20709;-83
2022/12/30 10:25:45;;;;;;;7.30;2.73;;;;;;;7.30;76.48;100400.28;4987450;28;20220;-84
2022/12/30 10:28:14;;;;;;;5.50;2.43;;;;;;;7.37;75.82;100397.28;4987140;28;20207;-83
2022/12/30 10:30:47;;;;;;;7.30;3.20;;;;;;;7.38;76.09;100388.41;4989057;28;20222;-81
2022/12/30 10:33:19;;;;;;;7.07;1.80;;;;;;;7.42;75.56;100377.56;4989177;28;20690;-84
2022/12/30 10:35:50;;;;;;;6.27;1.70;;;;;;;7.43;75.28;100376.63;4988400;28;20219;-81
2022/12/30 10:38:18;;;;;;;6.17;2.20;;;;;;;7.45;75.78;100366.81;4987172;28;20219;-83
2022/12/30 10:40:54;;;;;;;10.37;2.20;;;;;;;7.48;75.46;100364.00;4987641;28;20218;-83
2022/12/30 10:43:34;;;;;;;5.20;1.67;;;;;;;7.51;75.32;100357.66;4988893;28;20211;-84
2022/12/30 10:46:16;;;;;;;5.93;2.07;;;;;;;7.53;75.61;100356.63;4985040;28;20231;-82
2022/12/30 10:49:06;;;;;;;5.27;1.30;;;;;;;7.51;75.24;100339.97;4985315;28;20218;-84
2022/12/30 10:51:34;;;;;;;9.27;1.93;;;;;;;7.58;74.88;100346.63;4986255;28;20225;-82
2022/12/30 10:54:01;;;;;;;5.40;1.77;;;;;;;7.59;74.51;100337.75;4986794;28;20220;-81
2022/12/30 10:56:31;;;;;;;6.77;1.40;;;;;;;7.60;74.46;100328.84;4989884;28;20575;-83
2022/12/30 10:59:00;;;;;;;4.07;1.20;;;;;;;7.64;73.89;100316.28;4986068;28;20220;-83
2022/12/30 11:01:32;;;;;;;3.90;1.50;;;;;;;7.68;74.08;100298.41;4988555;28;20207;-82
2022/12/30 11:03:58;;;;;;;6.93;1.70;;;;;;;7.69;74.37;100305.44;4990256;28;20204;-81
2022/12/30 11:06:27;;;;;;;5.50;2.00;;;;;;;7.72;74.09;100291.97;4985338;28;20232;-82
2022/12/30 11:09:22;;;;;;;4.77;1.43;;;;;;;7.73;73.96;100277.78;4988259;28;20212;-80
2022/12/30 11:14:45;;;;;;;5.03;1.77;;;;;;;7.78;74.67;100279.25;4977732;28;20345;-82
2022/12/30 11:17:24;;;;;;;6.00;2.30;;;;;;;7.80;74.23;100271.19;4979233;28;20231;-80
2022/12/30 11:19:53;;;;;;;4.77;0.80;;;;;;;7.87;74.34;100254.00;4986285;28;20213;-82
2022/12/30 11:22:20;;;;;;;4.93;1.13;;;;;;;7.85;73.53;100253.22;4989992;28;20231;-83
2022/12/30 11:25:01;;;;;;;6.67;1.83;;;;;;;7.86;74.72;100249.63;4988300;28;20211;-81
2022/12/30 11:27:42;;;;;;;4.77;1.80;;;;;;;7.87;74.34;100230.13;4988019;28;20203;-82
2022/12/30 11:30:24;;;;;;;4.67;1.10;;;;;;;7.93;74.21;100235.06;4987160;28;20206;-81
2022/12/30 11:32:51;;;;;;;3.27;1.30;;;;;;;7.92;73.80;100225.41;4982790;28;20199;-81
2022/12/30 11:35:33;;;;;;;3.80;1.40;;;;;;;7.95;74.25;100217.28;4989523;28;20231;-81
2022/12/30 11:37:59;;;;;;;4.67;1.30;;;;;;;8.03;73.54;100212.38;4983965;28;20219;-81
2022/12/30 11:40:35;;;;;;;3.97;1.40;;;;;;;8.06;73.95;100198.91;4989510;28;20214;-84
2022/12/30 11:43:20;;;;;;;5.67;1.33;;;;;;;8.10;74.03;100191.63;4990051;28;20296;-83
2022/12/30 11:46:00;;;;;;;3.53;1.27;;;;;;;8.13;73.88;100184.34;4987890;28;20239;-82
2022/12/30 11:48:33;;;;;;;5.17;1.30;;;;;;;8.17;73.27;100185.00;4994103;28;20207;-83
2022/12/30 11:51:01;;;;;;;4.07;1.17;;;;;;;8.16;73.31;100173.56;4991178;28;20207;-82
2022/12/30 11:53:32;;;;;;;4.33;0.97;;;;;;;8.20;73.82;100167.13;4992099;28;20231;-82
2022/12/30 11:56:06;;;;;;;3.80;1.00;;;;;;;8.22;73.58;100162.56;4987782;28;20234;-84
2022/12/30 11:58:37;;;;;;;2.57;1.30;;;;;;;8.25;74.17;100161.50;4986035;28;20593;-82
2022/12/30 12:01:08;;;;;;;8.13;3.37;;;;;;;8.28;73.88;100164.81;4986252;28;20200;-82
2022/12/30 12:03:48;;;;;;;2.63;1.10;;;;;;;8.30;73.92;100164.75;4983996;28;20291;-83
2022/12/30 12:06:14;;;;;;;4.70;1.43;;;;;;;8.30;73.27;100154.97;4985370;28;20219;-83
2022/12/30 12:08:50;;;;;;;5.13;1.10;;;;;;;8.35;72.89;100150.28;4989049;28;20200;-83
2022/12/30 12:11:20;;;;;;;3.13;1.30;;;;;;;8.35;72.57;100144.13;4986444;28;20302;-83
2022/12/30 12:13:56;;;;;;;4.23;1.00;;;;;;;8.40;72.67;100133.22;4988734;28;20222;-83
2022/12/30 12:16:33;;;;;;;2.43;0.83;;;;;;;8.42;72.61;100126.03;4988627;28;20639;-83
2022/12/30 12:19:08;;;;;;;4.83;1.43;;;;;;;8.44;72.32;100117.00;4991642;28;20211;-82
2022/12/30 12:21:41;;;;;;;2.93;0.93;;;;;;;8.46;72.13;100107.13;4989713;28;20195;-84
2022/12/30 12:24:17;;;;;;;2.13;0.90;;;;;;;8.49;71.58;100101.66;4987380;28;20210;-84
2022/12/30 12:26:53;;;;;;;2.97;1.10;;;;;;;8.52;71.81;100093.50;4985546;28;20242;-83
2022/12/30 12:29:20;;;;;;;4.83;1.27;;;;;;;8.53;71.13;100071.31;4989824;28;20210;-84
2022/12/30 12:32:02;;;;;;;4.37;1.20;;;;;;;8.57;71.04;100064.00;4989794;28;20647;-83